sensor_id;sensor_type;location;lat;lon;timestamp;pressure;altitude;pressure_sealevel;temperature;humidity
20105;BME280;10212;42.714;23.310;2023-12-20T00:03:52;95561.91;;;-1.92;100.00
20105;BME280;10212;42.714;23.310;2023-12-20T00:13:52;95545.50;;;-2.01;100.00
20105;BME280;10212;42.714;23.310;2023-12-20T00:23:53;95534.50;;;-2.02;100.00
20105;BME280;10212;42.714;23.310;2023-12-20T00:33:53;95516.81;;;-2.05;100.00
20105;BME280;10212;42.714;23.310;2023-12-20T00:43:54;95510.03;;;-2.18;100.00
20105;BME280;10212;42.714;23.310;2023-12-20T00:53:55;95501.44;;;-2.28;100.00
20105;BME280;10212;42.714;23.310;2023-12-20T01:03:55;95490.25;;;-2.38;100.00
20105;BME280;10212;42.714;23.310;2023-12-20T01:13:56;95489.66;;;-2.42;100.00
20105;BME280;10212;42.714;23.310;2023-12-20T01:23:56;95475.56;;;-2.71;100.00
20105;BME280;10212;42.714;23.310;2023-12-20T01:33:56;95455.09;;;-2.82;100.00
20105;BME280;10212;42.714;23.310;2023-12-20T01:43:57;95449.88;;;-3.30;100.00
20105;BME280;10212;42.714;23.310;2023-12-20T01:53:57;95423.78;;;-3.33;100.00
20105;BME280;10212;42.714;23.310;2023-12-20T02:03:59;95426.81;;;-3.28;100.00
20105;BME280;10212;42.714;23.310;2023-12-20T02:13:59;95415.19;;;-3.32;100.00
20105;BME280;10212;42.714;23.310;2023-12-20T02:24:00;95401.56;;;-3.20;100.00
20105;BME280;10212;42.714;23.310;2023-12-20T02:34:00;95389.16;;;-3.24;100.00
20105;BME280;10212;42.714;23.310;2023-12-20T02:44:01;95374.00;;;-3.15;100.00
20105;BME280;10212;42.714;23.310;2023-12-20T02:54:02;95373.41;;;-3.18;100.00
20105;BME280;10212;42.714;23.310;2023-12-20T03:04:02;95385.50;;;-3.09;100.00
20105;BME280;10212;42.714;23.310;2023-12-20T03:14:03;95378.41;;;-3.17;100.00
20105;BME280;10212;42.714;23.310;2023-12-20T03:24:04;95363.66;;;-3.49;100.00
20105;BME280;10212;42.714;23.310;2023-12-20T03:34:04;95363.19;;;-3.54;100.00
20105;BME280;10212;42.714;23.310;2023-12-20T03:44:04;95352.13;;;-3.42;100.00
20105;BME280;10212;42.714;23.310;2023-12-20T03:54:05;95346.56;;;-3.35;100.00
20105;BME280;10212;42.714;23.310;2023-12-20T04:04:06;95345.66;;;-3.34;100.00
20105;BME280;10212;42.714;23.310;2023-12-20T04:14:06;95327.19;;;-3.63;100.00
20105;BME280;10212;42.714;23.310;2023-12-20T04:24:07;95315.06;;;-3.83;100.00
20105;BME280;10212;42.714;23.310;2023-12-20T04:34:08;95314.16;;;-3.58;100.00
20105;BME280;10212;42.714;23.310;2023-12-20T04:44:08;95307.22;;;-3.44;100.00
20105;BME280;10212;42.714;23.310;2023-12-20T04:54:09;95305.66;;;-3.58;100.00
20105;BME280;10212;42.714;23.310;2023-12-20T05:04:10;95296.09;;;-3.79;100.00
20105;BME280;10212;42.714;23.310;2023-12-20T05:14:11;95286.59;;;-3.77;100.00
20105;BME280;10212;42.714;23.310;2023-12-20T05:24:11;95289.56;;;-3.83;100.00
20105;BME280;10212;42.714;23.310;2023-12-20T05:34:12;95273.34;;;-3.58;100.00
20105;BME280;10212;42.714;23.310;2023-12-20T05:44:12;95265.84;;;-3.48;100.00
20105;BME280;10212;42.714;23.310;2023-12-20T05:54:12;95260.97;;;-3.51;100.00
20105;BME280;10212;42.714;23.310;2023-12-20T06:04:13;95256.13;;;-3.43;100.00
20105;BME280;10212;42.714;23.310;2023-12-20T06:14:14;95254.34;;;-3.54;100.00
20105;BME280;10212;42.714;23.310;2023-12-20T06:24:14;95268.06;;;-3.79;100.00
20105;BME280;10212;42.714;23.310;2023-12-20T06:34:14;95255.50;;;-3.10;100.00
20105;BME280;10212;42.714;23.310;2023-12-20T06:44:15;95248.63;;;-3.21;100.00
20105;BME280;10212;42.714;23.310;2023-12-20T06:54:15;95235.31;;;-3.13;100.00
20105;BME280;10212;42.714;23.310;2023-12-20T07:04:16;95223.25;;;-3.23;100.00
20105;BME280;10212;42.714;23.310;2023-12-20T07:14:20;95215.81;;;-3.26;100.00
20105;BME280;10212;42.714;23.310;2023-12-20T07:24:20;95209.00;;;-2.57;100.00
20105;BME280;10212;42.714;23.310;2023-12-20T07:34:21;95195.03;;;-2.52;100.00
20105;BME280;10212;42.714;23.310;2023-12-20T07:44:21;95195.38;;;-2.34;100.00
20105;BME280;10212;42.714;23.310;2023-12-20T07:54:22;95196.03;;;-2.99;100.00
20105;BME280;10212;42.714;23.310;2023-12-20T08:04:22;95195.97;;;-2.53;100.00
20105;BME280;10212;42.714;23.310;2023-12-20T08:14:22;95181.97;;;-2.15;100.00
20105;BME280;10212;42.714;23.310;2023-12-20T08:24:23;95174.59;;;-1.54;100.00
20105;BME280;10212;42.714;23.310;2023-12-20T08:34:23;95157.75;;;-1.56;100.00
20105;BME280;10212;42.714;23.310;2023-12-20T08:44:24;95153.22;;;-1.22;100.00
20105;BME280;10212;42.714;23.310;2023-12-20T08:54:24;95138.38;;;-1.28;100.00
20105;BME280;10212;42.714;23.310;2023-12-20T09:04:25;95115.91;;;-1.24;100.00
20105;BME280;10212;42.714;23.310;2023-12-20T09:14:25;95087.78;;;-1.14;100.00
20105;BME280;10212;42.714;23.310;2023-12-20T09:24:26;95053.50;;;-0.82;100.00
20105;BME280;10212;42.714;23.310;2023-12-20T09:34:26;95038.91;;;-1.11;100.00
20105;BME280;10212;42.714;23.310;2023-12-20T09:44:27;95018.22;;;-0.68;100.00
20105;BME280;10212;42.714;23.310;2023-12-20T09:54:28;95008.75;;;-0.58;100.00
20105;BME280;10212;42.714;23.310;2023-12-20T10:04:31;94990.16;;;-0.40;100.00
20105;BME280;10212;42.714;23.310;2023-12-20T10:14:35;94962.41;;;0.03;100.00
20105;BME280;10212;42.714;23.310;2023-12-20T10:24:35;94949.25;;;0.16;100.00
20105;BME280;10212;42.714;23.310;2023-12-20T10:34:36;94931.97;;;0.18;100.00
20105;BME280;10212;42.714;23.310;2023-12-20T10:44:36;94914.75;;;0.10;100.00
20105;BME280;10212;42.714;23.310;2023-12-20T10:54:36;94888.75;;;0.23;100.00
20105;BME280;10212;42.714;23.310;2023-12-20T11:14:51;94856.19;;;0.06;100.00
20105;BME280;10212;42.714;23.310;2023-12-20T11:24:53;94842.44;;;0.07;100.00
20105;BME280;10212;42.714;23.310;2023-12-20T11:34:57;94824.22;;;-0.18;100.00
20105;BME280;10212;42.714;23.310;2023-12-20T11:44:59;94800.09;;;-0.26;100.00
20105;BME280;10212;42.714;23.310;2023-12-20T11:54:59;94771.81;;;-0.34;100.00
20105;BME280;10212;42.714;23.310;2023-12-20T12:05:00;94760.22;;;-0.10;100.00
20105;BME280;10212;42.714;23.310;2023-12-20T12:15:00;94740.19;;;-0.25;100.00
20105;BME280;10212;42.714;23.310;2023-12-20T12:25:10;94718.16;;;0.56;100.00
20105;BME280;10212;42.714;23.310;2023-12-20T12:35:11;94724.84;;;0.30;100.00
20105;BME280;10212;42.714;23.310;2023-12-20T12:45:11;94719.84;;;0.47;100.00
20105;BME280;10212;42.714;23.310;2023-12-20T12:55:12;94700.06;;;0.39;100.00
20105;BME280;10212;42.714;23.310;2023-12-20T13:05:12;94698.81;;;0.43;100.00
20105;BME280;10212;42.714;23.310;2023-12-20T13:15:13;94696.75;;;0.47;100.00
20105;BME280;10212;42.714;23.310;2023-12-20T13:25:13;94694.16;;;0.20;100.00
20105;BME280;10212;42.714;23.310;2023-12-20T13:35:14;94691.16;;;0.07;100.00
20105;BME280;10212;42.714;23.310;2023-12-20T13:45:14;94669.47;;;0.01;100.00
20105;BME280;10212;42.714;23.310;2023-12-20T13:55:15;94679.72;;;0.01;100.00
20105;BME280;10212;42.714;23.310;2023-12-20T14:05:16;94676.94;;;-0.06;100.00
20105;BME280;10212;42.714;23.310;2023-12-20T14:15:17;94667.78;;;0.10;100.00
20105;BME280;10212;42.714;23.310;2023-12-20T14:25:18;94666.69;;;-0.24;100.00
20105;BME280;10212;42.714;23.310;2023-12-20T14:35:18;94663.75;;;-0.76;100.00
20105;BME280;10212;42.714;23.310;2023-12-20T14:45:19;94658.56;;;-0.84;100.00
20105;BME280;10212;42.714;23.310;2023-12-20T14:55:20;94660.59;;;-0.88;100.00
20105;BME280;10212;42.714;23.310;2023-12-20T15:05:20;94659.94;;;-1.28;100.00
20105;BME280;10212;42.714;23.310;2023-12-20T15:15:21;94657.91;;;-1.24;100.00
20105;BME280;10212;42.714;23.310;2023-12-20T15:25:21;94659.47;;;-1.13;100.00
20105;BME280;10212;42.714;23.310;2023-12-20T15:35:22;94666.06;;;-1.11;100.00
20105;BME280;10212;42.714;23.310;2023-12-20T15:45:22;94669.00;;;-1.05;100.00
20105;BME280;10212;42.714;23.310;2023-12-20T15:55:23;94661.16;;;-0.94;100.00
20105;BME280;10212;42.714;23.310;2023-12-20T16:05:23;94668.78;;;-1.12;100.00
20105;BME280;10212;42.714;23.310;2023-12-20T16:15:24;94669.31;;;-1.18;100.00
20105;BME280;10212;42.714;23.310;2023-12-20T16:25:24;94658.78;;;-1.05;100.00
20105;BME280;10212;42.714;23.310;2023-12-20T16:35:25;94653.72;;;-1.15;100.00
20105;BME280;10212;42.714;23.310;2023-12-20T16:45:25;94648.31;;;-1.12;100.00
20105;BME280;10212;42.714;23.310;2023-12-20T16:55:25;94645.66;;;-1.20;100.00
20105;BME280;10212;42.714;23.310;2023-12-20T17:05:26;94650.47;;;-1.17;100.00
20105;BME280;10212;42.714;23.310;2023-12-20T17:15:26;94640.69;;;-1.32;100.00
20105;BME280;10212;42.714;23.310;2023-12-20T17:25:27;94650.06;;;-1.13;100.00
20105;BME280;10212;42.714;23.310;2023-12-20T17:35:27;94659.72;;;-1.44;100.00
20105;BME280;10212;42.714;23.310;2023-12-20T17:45:27;94663.25;;;-1.65;100.00
20105;BME280;10212;42.714;23.310;2023-12-20T17:55:29;94676.16;;;-1.57;100.00
20105;BME280;10212;42.714;23.310;2023-12-20T18:05:29;94656.00;;;-1.80;100.00
20105;BME280;10212;42.714;23.310;2023-12-20T18:15:29;94658.44;;;-1.68;100.00
20105;BME280;10212;42.714;23.310;2023-12-20T18:25:30;94665.97;;;-1.67;100.00
20105;BME280;10212;42.714;23.310;2023-12-20T18:35:30;94651.69;;;-1.70;100.00
20105;BME280;10212;42.714;23.310;2023-12-20T18:45:33;94652.81;;;-2.02;100.00
20105;BME280;10212;42.714;23.310;2023-12-20T18:55:33;94652.19;;;-1.46;100.00
20105;BME280;10212;42.714;23.310;2023-12-20T19:05:33;94658.53;;;-1.12;100.00
20105;BME280;10212;42.714;23.310;2023-12-20T19:15:34;94662.81;;;-1.03;100.00
20105;BME280;10212;42.714;23.310;2023-12-20T19:25:34;94667.81;;;-1.11;100.00
20105;BME280;10212;42.714;23.310;2023-12-20T19:35:35;94664.59;;;-1.13;100.00
20105;BME280;10212;42.714;23.310;2023-12-20T19:45:36;94653.72;;;-1.15;100.00
20105;BME280;10212;42.714;23.310;2023-12-20T19:55:36;94659.19;;;-1.38;100.00
20105;BME280;10212;42.714;23.310;2023-12-20T20:05:37;94648.69;;;-1.55;100.00
20105;BME280;10212;42.714;23.310;2023-12-20T20:15:37;94661.13;;;-1.70;100.00
20105;BME280;10212;42.714;23.310;2023-12-20T20:25:38;94649.19;;;-1.89;100.00
20105;BME280;10212;42.714;23.310;2023-12-20T20:35:38;94641.63;;;-1.91;100.00
20105;BME280;10212;42.714;23.310;2023-12-20T20:45:39;94638.84;;;-2.08;100.00
20105;BME280;10212;42.714;23.310;2023-12-20T20:55:39;94657.09;;;-2.22;100.00
20105;BME280;10212;42.714;23.310;2023-12-20T21:05:40;94646.91;;;-2.02;100.00
20105;BME280;10212;42.714;23.310;2023-12-20T21:15:41;94671.75;;;-2.34;100.00
20105;BME280;10212;42.714;23.310;2023-12-20T21:25:41;94671.50;;;-2.11;100.00
20105;BME280;10212;42.714;23.310;2023-12-20T21:35:42;94665.44;;;-1.80;100.00
20105;BME280;10212;42.714;23.310;2023-12-20T21:45:42;94677.25;;;-2.59;100.00
20105;BME280;10212;42.714;23.310;2023-12-20T21:55:43;94652.00;;;-2.32;100.00
20105;BME280;10212;42.714;23.310;2023-12-20T22:05:43;94662.50;;;-2.35;100.00
20105;BME280;10212;42.714;23.310;2023-12-20T22:15:44;94650.38;;;-2.13;100.00
20105;BME280;10212;42.714;23.310;2023-12-20T22:25:44;94639.06;;;-2.40;100.00
20105;BME280;10212;42.714;23.310;2023-12-20T22:35:45;94628.59;;;-2.47;100.00
20105;BME280;10212;42.714;23.310;2023-12-20T22:45:46;94629.09;;;-2.63;100.00
20105;BME280;10212;42.714;23.310;2023-12-20T22:55:46;94638.47;;;-2.94;100.00
20105;BME280;10212;42.714;23.310;2023-12-20T23:05:47;94624.28;;;-3.18;100.00
20105;BME280;10212;42.714;23.310;2023-12-20T23:15:47;94614.56;;;-2.93;100.00
20105;BME280;10212;42.714;23.310;2023-12-20T23:25:48;94619.81;;;-2.84;100.00
20105;BME280;10212;42.714;23.310;2023-12-20T23:35:49;94610.56;;;-2.85;100.00
20105;BME280;10212;42.714;23.310;2023-12-20T23:45:50;94598.16;;;-2.90;100.00
20105;BME280;10212;42.714;23.310;2023-12-20T23:55:50;94606.31;;;0.18;100.00
